Private Wetterstation Wechselburg
Wetterdaten: Donnerstag, 13.06.2013
Datum Zeit Temp. +2m Bodentemp. Temp.+5cm Temp. Wind Windchill X Diff Temp. Feuchte +2m Feuchte +5cm Sonnenschein Luftdruck Regen Wind Richtung Richtung Sonnenschein UV Taupunkt Windchill Windben
13.06.2013 00:00 13,3 C 23,4 C 14,4 C 13,5 C 13,5 C 0,2 C 86 % 82 % 0 % 1017,6 hPa 0,0 l/m 0,0 km/h (0 Bft) O-NO 67 0 min 0,0 UV-I 11,0 C 13,5 C 0,0 km/h (0 Bft)
13.06.2013 00:05 13,3 C 23,4 C 14,4 C 13,5 C 13,5 C 0,2 C 86 % 82 % 0 % 1017,6 hPa 0,0 l/m 0,0 km/h (0 Bft) O-NO 67 0 min 0,0 UV-I 11,0 C 13,5 C 0,0 km/h (0 Bft)
13.06.2013 00:10 13,2 C 23,3 C 14,3 C 13,4 C 13,4 C 0,2 C 86 % 82 % 0 % 1017,6 hPa 0,0 l/m 0,0 km/h (0 Bft) W 270 0 min 0,0 UV-I 10,9 C 13,4 C 0,0 km/h (0 Bft)
13.06.2013 00:15 13,1 C 23,3 C 14,3 C 13,2 C 13,2 C 0,1 C 86 % 82 % 0 % 1017,6 hPa 0,0 l/m 0,0 km/h (0 Bft) W-SW 247 0 min 0,0 UV-I 10,8 C 13,2 C 0,0 km/h (0 Bft)
13.06.2013 00:20 13,1 C 23,3 C 14,2 C 13,1 C 13,1 C 0,0 C 86 % 82 % 0 % 1017,6 hPa 0,0 l/m 0,0 km/h (0 Bft) W 270 0 min 0,0 UV-I 10,8 C 13,1 C 0,0 km/h (0 Bft)
13.06.2013 00:25 12,9 C 23,3 C 14,1 C 13,0 C 13,0 C 0,1 C 86 % 82 % 0 % 1017,6 hPa 0,0 l/m 0,0 km/h (0 Bft) W-NW 292 0 min 0,0 UV-I 10,6 C 13,0 C 0,0 km/h (0 Bft)
13.06.2013 00:30 12,8 C 23,3 C 14,1 C 13,0 C 13,0 C 0,2 C 86 % 82 % 0 % 1017,6 hPa 0,0 l/m 0,0 km/h (0 Bft) N-NW 337 0 min 0,0 UV-I 10,5 C 13,0 C 0,0 km/h (0 Bft)
13.06.2013 00:35 12,8 C 23,3 C 14,0 C 13,0 C 13,0 C 0,2 C 86 % 83 % 0 % 1017,3 hPa 0,0 l/m 0,0 km/h (0 Bft) O-NO 67 0 min 0,0 UV-I 10,5 C 13,0 C 0,0 km/h (0 Bft)
13.06.2013 00:41 12,8 C 23,3 C 14,0 C 13,1 C 13,1 C 0,3 C 86 % 82 % 0 % 1017,3 hPa 0,0 l/m 0,0 km/h (0 Bft) N 0 0 min 0,0 UV-I 10,5 C 13,1 C 0,0 km/h (0 Bft)
13.06.2013 01:00 12,6 C 23,3 C 14,1 C 13,0 C 13,0 C 0,4 C 87 % 83 % 0 % 1017,2 hPa 0,0 l/m 0,0 km/h (0 Bft) W 270 0 min 0,0 UV-I 10,5 C 13,0 C 0,0 km/h (0 Bft)
13.06.2013 01:05 12,5 C 23,3 C 14,0 C 13,0 C 13,0 C 0,5 C 87 % 83 % 0 % 1017,2 hPa 0,0 l/m 0,0 km/h (0 Bft) NW 315 0 min 0,0 UV-I 10,4 C 13,0 C 0,0 km/h (0 Bft)
13.06.2013 01:10 12,5 C 23,3 C 14,0 C 13,0 C 13,0 C 0,5 C 87 % 83 % 0 % 1017,2 hPa 0,0 l/m 0,0 km/h (0 Bft) NO 45 0 min 0,0 UV-I 10,4 C 13,0 C 0,0 km/h (0 Bft)
13.06.2013 01:15 12,5 C 23,3 C 14,0 C 13,0 C 13,0 C 0,5 C 87 % 83 % 0 % 1017,4 hPa 0,0 l/m 0,0 km/h (0 Bft) O 90 0 min 0,0 UV-I 10,4 C 13,0 C 0,0 km/h (0 Bft)
13.06.2013 01:20 12,4 C 23,3 C 14,0 C 12,9 C 12,9 C 0,5 C 87 % 83 % 0 % 1017,4 hPa 0,0 l/m 0,0 km/h (0 Bft) O 90 0 min 0,0 UV-I 10,3 C 12,9 C 0,0 km/h (0 Bft)
13.06.2013 01:25 12,5 C 23,3 C 14,0 C 12,8 C 12,8 C 0,3 C 88 % 83 % 0 % 1017,4 hPa 0,0 l/m 0,0 km/h (0 Bft) O-NO 67 0 min 0,0 UV-I 10,6 C 12,8 C 0,0 km/h (0 Bft)
13.06.2013 01:30 12,4 C 23,3 C 13,9 C 12,7 C 12,7 C 0,3 C 88 % 83 % 0 % 1017,4 hPa 0,0 l/m 0,0 km/h (0 Bft) W 270 0 min 0,0 UV-I 10,5 C 12,7 C 0,0 km/h (0 Bft)
13.06.2013 01:35 12,3 C 23,2 C 13,8 C 12,6 C 12,6 C 0,3 C 87 % 83 % 0 % 1017,1 hPa 0,0 l/m 0,0 km/h (0 Bft) W 270 0 min 0,0 UV-I 10,2 C 12,6 C 0,0 km/h (0 Bft)
13.06.2013 01:40 12,3 C 23,2 C 13,7 C 12,4 C 12,4 C 0,1 C 87 % 82 % 0 % 1017,1 hPa 0,0 l/m 0,0 km/h (0 Bft) W 270 0 min 0,0 UV-I 10,2 C 12,4 C 0,0 km/h (0 Bft)
13.06.2013 01:45 12,3 C 23,2 C 13,6 C 12,4 C 12,4 C 0,1 C 87 % 82 % 0 % 1017,1 hPa 0,0 l/m 0,0 km/h (0 Bft) NW 315 0 min 0,0 UV-I 10,2 C 12,4 C 0,0 km/h (0 Bft)
13.06.2013 01:50 12,1 C 23,3 C 13,6 C 12,4 C 12,4 C 0,3 C 87 % 82 % 0 % 1017,1 hPa 0,0 l/m 0,0 km/h (0 Bft) O-NO 67 0 min 0,0 UV-I 10,0 C 12,4 C 0,0 km/h (0 Bft)
13.06.2013 01:55 12,1 C 23,3 C 13,6 C 12,4 C 12,4 C 0,3 C 87 % 82 % 0 % 1017,1 hPa 0,0 l/m 0,0 km/h (0 Bft) O-NO 67 0 min 0,0 UV-I 10,0 C 12,4 C 0,0 km/h (0 Bft)
13.06.2013 02:00 12,0 C 23,3 C 13,6 C 12,2 C 12,2 C 0,2 C 87 % 82 % 0 % 1017,1 hPa 0,0 l/m 0,0 km/h (0 Bft) N-NO 22 0 min 0,0 UV-I 9,9 C 12,2 C 0,0 km/h (0 Bft)
13.06.2013 02:05 12,0 C 23,2 C 13,5 C 12,2 C 12,2 C 0,2 C 87 % 82 % 0 % 1017,1 hPa 0,0 l/m 0,0 km/h (0 Bft) NW 315 0 min 0,0 UV-I 9,9 C 12,2 C 0,0 km/h (0 Bft)
13.06.2013 02:10 12,0 C 23,2 C 13,5 C 12,1 C 12,1 C 0,1 C 88 % 82 % 0 % 1017,1 hPa 0,0 l/m 0,0 km/h (0 Bft) W-SW 247 0 min 0,0 UV-I 10,1 C 12,1 C 0,0 km/h (0 Bft)
13.06.2013 02:15 11,9 C 23,2 C 13,5 C 12,0 C 12,0 C 0,1 C 88 % 83 % 0 % 1017,3 hPa 0,0 l/m 0,0 km/h (0 Bft) NW 315 0 min 0,0 UV-I 10,0 C 12,0 C 0,0 km/h (0 Bft)
13.06.2013 02:20 11,9 C 23,2 C 13,5 C 12,1 C 12,1 C 0,2 C 88 % 83 % 0 % 1017,3 hPa 0,0 l/m 0,0 km/h (0 Bft) W 270 0 min 0,0 UV-I 10,0 C 12,1 C 0,0 km/h (0 Bft)
13.06.2013 02:25 11,9 C 23,2 C 13,3 C 12,0 C 12,0 C 0,1 C 88 % 83 % 0 % 1017,3 hPa 0,0 l/m 0,0 km/h (0 Bft) SW 225 0 min 0,0 UV-I 10,0 C 12,0 C 0,0 km/h (0 Bft)
13.06.2013 02:30 11,8 C 23,2 C 13,2 C 12,0 C 12,0 C 0,2 C 88 % 83 % 0 % 1017,3 hPa 0,0 l/m 0,0 km/h (0 Bft) N-NO 22 0 min 0,0 UV-I 9,9 C 12,0 C 0,0 km/h (0 Bft)
13.06.2013 02:35 11,7 C 23,2 C 13,2 C 12,1 C 12,1 C 0,4 C 88 % 83 % 0 % 1017,3 hPa 0,0 l/m 0,0 km/h (0 Bft) O-NO 67 0 min 0,0 UV-I 9,8 C 12,1 C 0,0 km/h (0 Bft)
13.06.2013 02:40 11,8 C 23,2 C 13,3 C 12,1 C 12,1 C 0,3 C 88 % 83 % 0 % 1017,3 hPa 0,0 l/m 0,0 km/h (0 Bft) N-NW 337 0 min 0,0 UV-I 9,9 C 12,1 C 0,0 km/h (0 Bft)
13.06.2013 02:45 11,7 C 23,2 C 13,2 C 12,1 C 12,1 C 0,4 C 88 % 83 % 0 % 1017,3 hPa 0,0 l/m 0,0 km/h (0 Bft) W-SW 247 0 min 0,0 UV-I 9,8 C 12,1 C 0,0 km/h (0 Bft)
13.06.2013 02:50 11,6 C 23,2 C 13,1 C 11,9 C 11,9 C 0,3 C 88 % 83 % 0 % 1017,3 hPa 0,0 l/m 0,0 km/h (0 Bft) W-SW 247 0 min 0,0 UV-I 9,7 C 11,9 C 0,0 km/h (0 Bft)
13.06.2013 02:55 11,6 C 23,2 C 13,1 C 11,9 C 11,9 C 0,3 C 88 % 83 % 0 % 1017,2 hPa 0,0 l/m 0,0 km/h (0 Bft) W 270 0 min 0,0 UV-I 9,7 C 11,9 C 0,0 km/h (0 Bft)
13.06.2013 03:00 11,5 C 23,2 C 13,1 C 11,8 C 11,8 C 0,3 C 88 % 83 % 0 % 1017,2 hPa 0,0 l/m 0,0 km/h (0 Bft) SW 225 0 min 0,0 UV-I 9,6 C 11,8 C 0,0 km/h (0 Bft)
13.06.2013 03:05 11,5 C 23,2 C 13,1 C 11,8 C 11,8 C 0,3 C 88 % 83 % 0 % 1017,2 hPa 0,0 l/m 0,0 km/h (0 Bft) O-NO 67 0 min 0,0 UV-I 9,6 C 11,8 C 0,0 km/h (0 Bft)
13.06.2013 03:10 11,4 C 23,1 C 13,0 C 11,7 C 11,7 C 0,3 C 88 % 83 % 0 % 1017,2 hPa 0,0 l/m 0,0 km/h (0 Bft) W-SW 247 0 min 0,0 UV-I 9,5 C 11,7 C 0,0 km/h (0 Bft)
13.06.2013 03:15 11,3 C 23,1 C 12,9 C 11,7 C 11,7 C 0,4 C 88 % 83 % 0 % 1017,0 hPa 0,0 l/m 0,0 km/h (0 Bft) W-SW 247 0 min 0,0 UV-I 9,4 C 11,7 C 0,0 km/h (0 Bft)
13.06.2013 03:20 11,3 C 23,1 C 12,9 C 11,6 C 11,6 C 0,3 C 88 % 83 % 0 % 1017,0 hPa 0,0 l/m 0,0 km/h (0 Bft) W-SW 247 0 min 0,0 UV-I 9,4 C 11,6 C 0,0 km/h (0 Bft)
13.06.2013 03:25 11,2 C 23,1 C 12,9 C 11,5 C 11,5 C 0,3 C 88 % 83 % 0 % 1017,0 hPa 0,0 l/m 0,0 km/h (0 Bft) W-SW 247 0 min 0,0 UV-I 9,3 C 11,5 C 0,0 km/h (0 Bft)
13.06.2013 03:30 11,2 C 23,1 C 12,9 C 11,5 C 11,5 C 0,3 C 89 % 83 % 0 % 1017,0 hPa 0,0 l/m 0,0 km/h (0 Bft) SW 225 0 min 0,0 UV-I 9,5 C 11,5 C 0,0 km/h (0 Bft)
13.06.2013 03:35 11,2 C 23,1 C 12,9 C 11,6 C 11,6 C 0,4 C 89 % 83 % 0 % 1017,0 hPa 0,0 l/m 0,0 km/h (0 Bft) W-SW 247 0 min 0,0 UV-I 9,5 C 11,6 C 0,0 km/h (0 Bft)
13.06.2013 03:40 11,2 C 23,1 C 12,8 C 11,6 C 11,6 C 0,4 C 89 % 83 % 0 % 1017,0 hPa 0,0 l/m 0,0 km/h (0 Bft) W-SW 247 0 min 0,0 UV-I 9,5 C 11,6 C 0,0 km/h (0 Bft)
13.06.2013 03:45 11,2 C 23,1 C 12,8 C 11,6 C 11,6 C 0,4 C 89 % 83 % 0 % 1017,0 hPa 0,0 l/m 0,0 km/h (0 Bft) W-SW 247 0 min 0,0 UV-I 9,5 C 11,6 C 0,0 km/h (0 Bft)
13.06.2013 03:50 11,1 C 23,1 C 12,8 C 11,5 C 11,5 C 0,4 C 89 % 83 % 0 % 1017,0 hPa 0,0 l/m 0,0 km/h (0 Bft) W 270 0 min 0,0 UV-I 9,4 C 11,5 C 0,0 km/h (0 Bft)
13.06.2013 03:55 11,1 C 23,0 C 12,9 C 11,5 C 11,5 C 0,4 C 89 % 83 % 0 % 1016,2 hPa 0,0 l/m 0,0 km/h (0 Bft) W-SW 247 0 min 0,0 UV-I 9,4 C 11,5 C 0,0 km/h (0 Bft)
13.06.2013 04:00 11,0 C 23,0 C 12,8 C 11,5 C 11,5 C 0,5 C 89 % 83 % 0 % 1016,2 hPa 0,0 l/m 0,0 km/h (0 Bft) SW 225 0 min 0,0 UV-I 9,3 C 11,5 C 0,0 km/h (0 Bft)
13.06.2013 04:05 11,1 C 23,0 C 12,7 C 11,5 C 11,5 C 0,4 C 89 % 83 % 0 % 1016,2 hPa 0,0 l/m 0,0 km/h (0 Bft) W 270 0 min 0,0 UV-I 9,4 C 11,5 C 0,0 km/h (0 Bft)
13.06.2013 04:10 11,1 C 23,0 C 12,7 C 11,5 C 11,5 C 0,4 C 89 % 83 % 0 % 1016,2 hPa 0,0 l/m 0,0 km/h (0 Bft) W-NW 292 0 min 0,0 UV-I 9,4 C 11,5 C 0,0 km/h (0 Bft)
13.06.2013 04:15 10,9 C 23,0 C 12,7 C 11,4 C 11,4 C 0,5 C 89 % 83 % 0 % 1016,6 hPa 0,0 l/m 0,0 km/h (0 Bft) W 270 0 min 0,0 UV-I 9,2 C 11,4 C 0,0 km/h (0 Bft)
13.06.2013 04:20 10,9 C 23,0 C 12,7 C 11,4 C 11,4 C 0,5 C 89 % 83 % 0 % 1016,6 hPa 0,0 l/m 0,0 km/h (0 Bft) W-SW 247 0 min 0,0 UV-I 9,2 C 11,4 C 0,0 km/h (0 Bft)
13.06.2013 04:25 10,9 C 23,0 C 12,7 C 11,3 C 11,3 C 0,4 C 89 % 83 % 0 % 1016,6 hPa 0,0 l/m 0,0 km/h (0 Bft) SW 225 0 min 0,0 UV-I 9,2 C 11,3 C 0,0 km/h (0 Bft)
13.06.2013 04:30 10,8 C 23,0 C 12,5 C 11,3 C 11,3 C 0,5 C 89 % 84 % 0 % 1016,6 hPa 0,0 l/m 0,0 km/h (0 Bft) W-NW 292 0 min 0,0 UV-I 9,1 C 11,3 C 0,0 km/h (0 Bft)
13.06.2013 04:35 10,8 C 23,0 C 12,5 C 11,2 C 11,2 C 0,4 C 89 % 83 % 0 % 1016,6 hPa 0,0 l/m 0,0 km/h (0 Bft) S 180 0 min 0,0 UV-I 9,1 C 11,2 C 0,0 km/h (0 Bft)
13.06.2013 04:40 10,8 C 23,0 C 12,5 C 11,2 C 11,2 C 0,4 C 89 % 84 % 0 % 1016,6 hPa 0,0 l/m 0,0 km/h (0 Bft) O-NO 67 0 min 0,0 UV-I 9,1 C 11,2 C 0,0 km/h (0 Bft)
13.06.2013 04:45 10,7 C 23,0 C 12,4 C 11,2 C 11,2 C 0,5 C 89 % 84 % 0 % 1016,6 hPa 0,0 l/m 0,0 km/h (0 Bft) W 270 0 min 0,0 UV-I 9,0 C 11,2 C 0,0 km/h (0 Bft)
13.06.2013 04:50 10,7 C 23,0 C 12,4 C 11,1 C 11,1 C 0,4 C 89 % 84 % 0 % 1016,6 hPa 0,0 l/m 0,0 km/h (0 Bft) W 270 0 min 0,0 UV-I 9,0 C 11,1 C 0,0 km/h (0 Bft)
13.06.2013 04:55 10,7 C 23,0 C 12,4 C 11,1 C 11,1 C 0,4 C 89 % 84 % 0 % 1016,4 hPa 0,0 l/m 0,0 km/h (0 Bft) O 90 0 min 0,0 UV-I 9,0 C 11,1 C 0,0 km/h (0 Bft)
13.06.2013 05:00 10,7 C 23,0 C 12,4 C 11,1 C 11,1 C 0,4 C 89 % 84 % 0 % 1016,4 hPa 0,0 l/m 0,0 km/h (0 Bft) O-NO 67 0 min 0,0 UV-I 9,0 C 11,1 C 0,0 km/h (0 Bft)
13.06.2013 05:05 10,7 C 22,9 C 12,4 C 11,1 C 11,1 C 0,4 C 89 % 84 % 0 % 1016,4 hPa 0,0 l/m 0,0 km/h (0 Bft) W 270 0 min 0,0 UV-I 9,0 C 11,1 C 0,0 km/h (0 Bft)
13.06.2013 05:10 10,6 C 22,9 C 12,5 C 11,1 C 11,1 C 0,5 C 89 % 84 % 13 % 1016,4 hPa 0,0 l/m 0,0 km/h (0 Bft) W-SW 247 5 min 0,0 UV-I 8,9 C 11,1 C 0,0 km/h (0 Bft)
13.06.2013 05:15 10,7 C 22,9 C 12,4 C 11,1 C 11,1 C 0,4 C 89 % 84 % 11 % 1016,8 hPa 0,0 l/m 0,0 km/h (0 Bft) W-SW 247 5 min 0,0 UV-I 9,0 C 11,1 C 0,0 km/h (0 Bft)
13.06.2013 05:20 10,7 C 22,9 C 12,4 C 11,2 C 11,2 C 0,5 C 90 % 84 % 13 % 1016,8 hPa 0,0 l/m 0,0 km/h (0 Bft) SW 225 5 min 0,1 UV-I 9,1 C 11,2 C 0,0 km/h (0 Bft)
13.06.2013 05:25 10,7 C 22,9 C 12,5 C 11,3 C 11,3 C 0,6 C 90 % 84 % 16 % 1016,8 hPa 0,0 l/m 0,0 km/h (0 Bft) SW 225 5 min 0,1 UV-I 9,1 C 11,3 C 0,0 km/h (0 Bft)
13.06.2013 05:30 10,7 C 22,9 C 12,4 C 11,4 C 11,4 C 0,7 C 90 % 84 % 18 % 1016,8 hPa 0,0 l/m 0,0 km/h (0 Bft) W-NW 292 5 min 0,1 UV-I 9,1 C 11,4 C 0,0 km/h (0 Bft)
13.06.2013 05:35 10,7 C 22,9 C 12,4 C 11,4 C 11,4 C 0,7 C 90 % 84 % 18 % 1017,1 hPa 0,0 l/m 0,0 km/h (0 Bft) SW 225 0 min 0,1 UV-I 9,1 C 11,4 C 0,0 km/h (0 Bft)
13.06.2013 05:40 10,7 C 22,9 C 12,5 C 11,5 C 11,5 C 0,8 C 90 % 84 % 21 % 1017,1 hPa 0,0 l/m 0,0 km/h (0 Bft) SW 225 0 min 0,2 UV-I 9,1 C 11,5 C 0,0 km/h (0 Bft)
13.06.2013 05:45 10,8 C 22,9 C 12,7 C 11,7 C 11,7 C 0,9 C 90 % 84 % 24 % 1017,1 hPa 0,0 l/m 0,0 km/h (0 Bft) O-NO 67 0 min 0,2 UV-I 9,2 C 11,7 C 0,0 km/h (0 Bft)
13.06.2013 05:50 11,0 C 22,9 C 12,7 C 11,9 C 11,9 C 0,9 C 90 % 84 % 24 % 1017,1 hPa 0,0 l/m 0,0 km/h (0 Bft) O-NO 67 0 min 0,2 UV-I 9,4 C 11,9 C 0,0 km/h (0 Bft)
13.06.2013 05:55 11,1 C 22,9 C 12,8 C 12,0 C 12,0 C 0,9 C 90 % 84 % 24 % 1017,1 hPa 0,0 l/m 0,0 km/h (0 Bft) W-SW 247 0 min 0,2 UV-I 9,5 C 12,0 C 0,0 km/h (0 Bft)
13.06.2013 06:00 11,0 C 22,9 C 12,8 C 12,1 C 12,1 C 1,1 C 90 % 84 % 29 % 1017,1 hPa 0,0 l/m 0,0 km/h (0 Bft) W-SW 247 0 min 0,2 UV-I 9,4 C 12,1 C 0,0 km/h (0 Bft)
13.06.2013 06:05 11,0 C 22,8 C 12,8 C 12,1 C 12,1 C 1,1 C 90 % 84 % 29 % 1017,1 hPa 0,0 l/m 0,0 km/h (0 Bft) W-SW 247 0 min 0,2 UV-I 9,4 C 12,1 C 0,0 km/h (0 Bft)
13.06.2013 06:10 11,1 C 22,9 C 12,8 C 12,3 C 12,3 C 1,2 C 90 % 84 % 32 % 1017,1 hPa 0,0 l/m 0,0 km/h (0 Bft) N-NO 22 0 min 0,2 UV-I 9,5 C 12,3 C 0,0 km/h (0 Bft)
13.06.2013 06:15 11,2 C 22,8 C 13,0 C 12,5 C 12,5 C 1,3 C 91 % 84 % 34 % 1017,1 hPa 0,0 l/m 0,0 km/h (0 Bft) W 270 0 min 0,2 UV-I 9,8 C 12,5 C 0,0 km/h (0 Bft)
13.06.2013 06:20 11,3 C 22,8 C 13,3 C 13,0 C 13,0 C 1,7 C 91 % 84 % 45 % 1017,1 hPa 0,0 l/m 0,0 km/h (0 Bft) O-NO 67 0 min 0,3 UV-I 9,9 C 13,0 C 0,0 km/h (0 Bft)
13.06.2013 06:25 11,5 C 22,8 C 13,5 C 13,4 C 13,4 C 1,9 C 91 % 84 % 50 % 1017,1 hPa 0,0 l/m 0,0 km/h (0 Bft) W-SW 247 0 min 0,3 UV-I 10,1 C 13,4 C 0,0 km/h (0 Bft)
13.06.2013 06:30 11,7 C 22,8 C 13,6 C 13,8 C 13,8 C 2,1 C 91 % 84 % 55 % 1017,1 hPa 0,0 l/m 0,0 km/h (0 Bft) W-NW 292 5 min 0,3 UV-I 10,3 C 13,8 C 0,0 km/h (0 Bft)
13.06.2013 06:35 11,9 C 22,8 C 13,8 C 14,0 C 14,0 C 2,1 C 91 % 84 % 55 % 1016,6 hPa 0,0 l/m 0,0 km/h (0 Bft) NW 315 0 min 0,3 UV-I 10,5 C 14,0 C 0,0 km/h (0 Bft)
13.06.2013 06:41 12,1 C 22,8 C 14,0 C 14,3 C 14,3 C 2,2 C 91 % 84 % 58 % 1016,6 hPa 0,0 l/m 0,0 km/h (0 Bft) N 0 0 min 0,2 UV-I 10,7 C 14,3 C 0,0 km/h (0 Bft)
13.06.2013 07:00 12,7 C 22,7 C 14,8 C 16,2 C 16,2 C 3,5 C 92 % 83 % 92 % 1016,4 hPa 0,0 l/m 0,0 km/h (0 Bft) W-SW 247 19 min 0,1 UV-I 11,4 C 16,2 C 0,0 km/h (0 Bft)
13.06.2013 07:05 12,9 C 22,7 C 14,9 C 17,4 C 17,4 C 4,5 C 92 % 83 % 100 % 1016,4 hPa 0,0 l/m 0,0 km/h (0 Bft) W 270 5 min 0,1 UV-I 11,6 C 17,4 C 0,0 km/h (0 Bft)
13.06.2013 07:10 13,1 C 22,6 C 15,1 C 18,3 C 18,3 C 5,2 C 92 % 83 % 100 % 1016,4 hPa 0,0 l/m 0,0 km/h (0 Bft) W-SW 247 5 min 0,0 UV-I 11,8 C 18,3 C 0,0 km/h (0 Bft)
13.06.2013 07:15 13,2 C 22,6 C 15,5 C 19,5 C 19,5 C 6,3 C 92 % 83 % 100 % 1016,1 hPa 0,0 l/m 0,0 km/h (0 Bft) NO 45 5 min 0,0 UV-I 11,9 C 19,5 C 0,0 km/h (0 Bft)
13.06.2013 07:20 13,6 C 22,4 C 15,6 C 19,4 C 19,4 C 5,8 C 92 % 83 % 100 % 1016,1 hPa 0,0 l/m 0,0 km/h (0 Bft) W 270 5 min 0,0 UV-I 12,3 C 19,4 C 0,0 km/h (0 Bft)
13.06.2013 07:25 13,9 C 22,3 C 15,9 C 19,5 C 19,5 C 5,6 C 92 % 83 % 100 % 1016,1 hPa 0,0 l/m 0,0 km/h (0 Bft) W 270 5 min 0,0 UV-I 12,6 C 19,5 C 1,6 km/h (1 Bft)
13.06.2013 07:30 14,3 C 22,3 C 16,1 C 20,6 C 20,6 C 6,3 C 92 % 82 % 100 % 1016,1 hPa 0,0 l/m 0,5 km/h (0 Bft) W-SW 247 5 min 0,0 UV-I 13,0 C 20,6 C 2,1 km/h (1 Bft)
13.06.2013 07:35 14,7 C 22,3 C 16,3 C 21,8 C 21,8 C 7,1 C 92 % 82 % 100 % 1016,2 hPa 0,0 l/m 0,8 km/h (0 Bft) SO 135 5 min 0,0 UV-I 13,4 C 21,8 C 1,8 km/h (1 Bft)
13.06.2013 07:40 15,2 C 22,3 C 16,6 C 22,0 C 22,0 C 6,8 C 93 % 82 % 100 % 1016,2 hPa 0,0 l/m 0,5 km/h (0 Bft) S 180 5 min 0,0 UV-I 14,1 C 22,0 C 2,9 km/h (1 Bft)
13.06.2013 07:45 15,6 C 22,3 C 16,8 C 22,0 C 22,0 C 6,4 C 92 % 82 % 100 % 1016,2 hPa 0,0 l/m 0,3 km/h (0 Bft) S 180 5 min 0,0 UV-I 14,3 C 22,0 C 2,3 km/h (1 Bft)
13.06.2013 07:50 16,0 C 22,2 C 17,1 C 22,0 C 22,0 C 6,0 C 92 % 82 % 100 % 1016,2 hPa 0,0 l/m 0,3 km/h (0 Bft) W 270 5 min 0,0 UV-I 14,7 C 22,0 C 0,0 km/h (0 Bft)
13.06.2013 07:55 16,3 C 22,3 C 17,3 C 22,4 C 22,4 C 6,1 C 91 % 82 % 100 % 1016,2 hPa 0,0 l/m 0,3 km/h (0 Bft) W-SW 247 5 min 0,0 UV-I 14,8 C 22,4 C 0,0 km/h (0 Bft)
13.06.2013 08:00 16,7 C 22,2 C 17,4 C 22,6 C 22,6 C 5,9 C 90 % 81 % 100 % 1016,2 hPa 0,0 l/m 0,5 km/h (0 Bft) S-SO 157 5 min 0,0 UV-I 15,0 C 22,6 C 3,4 km/h (1 Bft)
13.06.2013 08:05 16,9 C 22,2 C 17,6 C 22,3 C 22,3 C 5,4 C 89 % 81 % 100 % 1016,2 hPa 0,0 l/m 0,6 km/h (0 Bft) SO 135 5 min 0,0 UV-I 15,1 C 22,3 C 0,0 km/h (0 Bft)
13.06.2013 08:10 17,4 C 22,1 C 17,7 C 22,1 C 22,1 C 4,7 C 87 % 81 % 100 % 1016,2 hPa 0,0 l/m 0,8 km/h (0 Bft) S-SO 157 5 min 0,0 UV-I 15,2 C 22,1 C 6,1 km/h (2 Bft)
13.06.2013 08:15 17,7 C 22,1 C 17,9 C 22,0 C 22,0 C 4,3 C 85 % 81 % 100 % 1016,1 hPa 0,0 l/m 1,1 km/h (1 Bft) SO 135 5 min 0,0 UV-I 15,1 C 22,0 C 1,9 km/h (1 Bft)
13.06.2013 08:20 18,3 C 22,1 C 17,9 C 22,0 C 22,0 C 3,7 C 82 % 80 % 97 % 1016,1 hPa 0,0 l/m 1,9 km/h (1 Bft) SO 135 5 min 0,0 UV-I 15,2 C 22,0 C 6,3 km/h (2 Bft)
13.06.2013 08:25 18,5 C 22,1 C 17,9 C 21,8 C 21,8 C 3,3 C 81 % 80 % 87 % 1016,1 hPa 0,0 l/m 1,4 km/h (1 Bft) O-SO 112 5 min 0,0 UV-I 15,2 C 21,8 C 0,0 km/h (0 Bft)
13.06.2013 08:30 18,8 C 22,1 C 17,9 C 22,0 C 22,0 C 3,2 C 80 % 80 % 84 % 1016,1 hPa 0,0 l/m 0,6 km/h (0 Bft) SW 225 0 min 0,0 UV-I 15,3 C 22,0 C 4,3 km/h (1 Bft)
13.06.2013 08:35 19,0 C 22,1 C 18,0 C 23,1 C 23,1 C 4,1 C 79 % 80 % 100 % 1016,2 hPa 0,0 l/m 0,6 km/h (0 Bft) W-SW 247 5 min 0,0 UV-I 15,3 C 23,1 C 1,8 km/h (1 Bft)
13.06.2013 08:40 19,6 C 22,1 C 18,3 C 24,5 C 24,5 C 4,9 C 78 % 79 % 100 % 1016,2 hPa 0,0 l/m 1,0 km/h (0 Bft) W-SW 247 5 min 0,0 UV-I 15,7 C 24,5 C 2,6 km/h (1 Bft)
13.06.2013 08:45 19,9 C 22,1 C 18,6 C 26,1 C 26,1 C 6,2 C 77 % 80 % 100 % 1016,2 hPa 0,0 l/m 0,8 km/h (0 Bft) W 270 5 min 0,0 UV-I 15,7 C 26,1 C 0,0 km/h (0 Bft)
13.06.2013 08:50 20,6 C 22,1 C 18,9 C 27,0 C 27,0 C 6,4 C 75 % 79 % 100 % 1016,2 hPa 0,0 l/m 1,0 km/h (0 Bft) S-SW 202 5 min 0,0 UV-I 16,0 C 27,0 C 0,0 km/h (0 Bft)
13.06.2013 08:55 20,8 C 22,2 C 18,9 C 26,0 C 26,0 C 5,2 C 75 % 79 % 100 % 1016,1 hPa 0,0 l/m 1,0 km/h (0 Bft) W-SW 247 5 min 0,0 UV-I 16,2 C 26,0 C 0,0 km/h (0 Bft)
13.06.2013 09:00 21,0 C 22,2 C 18,9 C 24,5 C 24,5 C 3,5 C 74 % 79 % 92 % 1016,1 hPa 0,0 l/m 0,5 km/h (0 Bft) W 270 5 min 0,0 UV-I 16,2 C 24,5 C 0,0 km/h (0 Bft)
13.06.2013 09:05 21,1 C 22,2 C 18,9 C 23,9 C 23,9 C 2,8 C 73 % 79 % 74 % 1016,1 hPa 0,0 l/m 0,3 km/h (0 Bft) O-SO 112 0 min 0,0 UV-I 16,1 C 23,9 C 1,8 km/h (1 Bft)
13.06.2013 09:10 21,0 C 22,2 C 18,7 C 23,0 C 23,0 C 2,0 C 71 % 78 % 53 % 1016,1 hPa 0,0 l/m 1,0 km/h (0 Bft) S 180 0 min 0,0 UV-I 15,5 C 23,0 C 6,8 km/h (2 Bft)
13.06.2013 09:15 20,9 C 22,2 C 18,7 C 22,6 C 22,6 C 1,7 C 71 % 78 % 45 % 1016,1 hPa 0,0 l/m 0,8 km/h (0 Bft) SO 135 0 min 0,0 UV-I 15,4 C 22,6 C 2,1 km/h (1 Bft)
13.06.2013 09:20 20,9 C 22,2 C 18,7 C 22,2 C 22,2 C 1,3 C 70 % 78 % 34 % 1016,1 hPa 0,0 l/m 1,3 km/h (1 Bft) SW 225 0 min 0,0 UV-I 15,2 C 22,2 C 2,7 km/h (1 Bft)
13.06.2013 09:25 20,8 C 22,2 C 18,8 C 22,2 C 22,2 C 1,4 C 71 % 78 % 37 % 1016,1 hPa 0,0 l/m 1,1 km/h (1 Bft) S 180 0 min 0,0 UV-I 15,3 C 22,2 C 0,0 km/h (0 Bft)
13.06.2013 09:30 20,9 C 22,2 C 18,8 C 22,4 C 22,4 C 1,5 C 71 % 78 % 39 % 1016,1 hPa 0,0 l/m 0,5 km/h (0 Bft) S-SW 202 0 min 0,0 UV-I 15,4 C 22,4 C 0,0 km/h (0 Bft)
13.06.2013 09:35 20,9 C 22,2 C 18,8 C 22,5 C 22,5 C 1,6 C 71 % 78 % 42 % 1016,2 hPa 0,0 l/m 0,5 km/h (0 Bft) N-NW 337 0 min 0,0 UV-I 15,4 C 22,5 C 0,0 km/h (0 Bft)
13.06.2013 09:40 21,1 C 22,2 C 18,9 C 22,8 C 22,8 C 1,7 C 71 % 78 % 45 % 1016,2 hPa 0,0 l/m 0,2 km/h (0 Bft) SW 225 0 min 0,0 UV-I 15,6 C 22,8 C 0,0 km/h (0 Bft)
13.06.2013 09:45 21,2 C 22,2 C 18,8 C 22,7 C 22,7 C 1,5 C 71 % 78 % 39 % 1016,2 hPa 0,0 l/m 0,0 km/h (0 Bft) S 180 0 min 0,0 UV-I 15,7 C 22,7 C 0,0 km/h (0 Bft)
13.06.2013 09:50 21,3 C 22,2 C 18,9 C 22,7 C 22,7 C 1,4 C 71 % 78 % 37 % 1016,2 hPa 0,0 l/m 0,2 km/h (0 Bft) S-SW 202 0 min 0,0 UV-I 15,8 C 22,7 C 0,0 km/h (0 Bft)
13.06.2013 09:55 21,3 C 22,2 C 18,7 C 22,5 C 22,5 C 1,2 C 71 % 79 % 32 % 1016,2 hPa 0,0 l/m 0,2 km/h (0 Bft) O 90 0 min 0,0 UV-I 15,8 C 22,5 C 0,0 km/h (0 Bft)
13.06.2013 10:00 21,3 C 22,3 C 18,7 C 22,1 C 22,1 C 0,8 C 71 % 79 % 21 % 1016,2 hPa 0,0 l/m 0,2 km/h (0 Bft) W-SW 247 0 min 0,0 UV-I 15,8 C 22,1 C 1,6 km/h (1 Bft)
13.06.2013 10:05 21,3 C 22,3 C 18,7 C 21,9 C 21,9 C 0,6 C 71 % 79 % 16 % 1016,2 hPa 0,0 l/m 0,5 km/h (0 Bft) SW 225 0 min 0,0 UV-I 15,8 C 21,9 C 2,4 km/h (1 Bft)
13.06.2013 10:10 21,2 C 22,3 C 18,6 C 21,8 C 21,8 C 0,6 C 71 % 79 % 16 % 1016,2 hPa 0,0 l/m 1,0 km/h (0 Bft) SW 225 0 min 0,0 UV-I 15,7 C 21,8 C 4,3 km/h (1 Bft)
13.06.2013 10:15 21,2 C 22,3 C 18,7 C 21,8 C 21,8 C 0,6 C 71 % 79 % 16 % 1016,4 hPa 0,0 l/m 1,3 km/h (1 Bft) SW 225 0 min 0,0 UV-I 15,7 C 21,8 C 3,2 km/h (1 Bft)
13.06.2013 10:20 21,3 C 22,3 C 18,9 C 21,8 C 21,8 C 0,5 C 71 % 79 % 13 % 1016,4 hPa 0,0 l/m 1,6 km/h (1 Bft) S-SO 157 0 min 0,0 UV-I 15,8 C 21,8 C 2,6 km/h (1 Bft)
13.06.2013 10:25 21,2 C 22,3 C 18,9 C 22,1 C 22,1 C 0,9 C 71 % 79 % 24 % 1016,4 hPa 0,0 l/m 1,4 km/h (1 Bft) SW 225 0 min 0,0 UV-I 15,7 C 22,1 C 0,0 km/h (0 Bft)
13.06.2013 10:30 21,4 C 22,3 C 19,4 C 23,0 C 23,0 C 1,6 C 71 % 78 % 42 % 1016,4 hPa 0,0 l/m 0,8 km/h (0 Bft) SW 225 0 min 0,0 UV-I 15,9 C 23,0 C 0,0 km/h (0 Bft)
13.06.2013 10:35 21,5 C 22,2 C 19,5 C 23,4 C 23,4 C 1,9 C 71 % 78 % 50 % 1016,2 hPa 0,0 l/m 0,6 km/h (0 Bft) W-SW 247 0 min 0,0 UV-I 16,0 C 23,4 C 0,0 km/h (0 Bft)
13.06.2013 10:40 21,7 C 22,2 C 19,6 C 23,8 C 23,8 C 2,1 C 70 % 78 % 55 % 1016,2 hPa 0,0 l/m 0,3 km/h (0 Bft) O-SO 112 0 min 0,0 UV-I 16,0 C 23,8 C 0,0 km/h (0 Bft)
13.06.2013 10:45 21,9 C 22,2 C 19,5 C 24,0 C 24,0 C 2,1 C 70 % 78 % 55 % 1016,2 hPa 0,0 l/m 0,5 km/h (0 Bft) S 180 0 min 0,0 UV-I 16,2 C 24,0 C 0,0 km/h (0 Bft)
13.06.2013 10:50 21,8 C 22,2 C 19,6 C 23,9 C 23,9 C 2,1 C 69 % 77 % 55 % 1016,2 hPa 0,0 l/m 0,6 km/h (0 Bft) SW 225 0 min 0,0 UV-I 15,9 C 23,9 C 0,0 km/h (0 Bft)
13.06.2013 10:55 21,8 C 22,2 C 19,5 C 23,7 C 23,7 C 1,9 C 69 % 78 % 50 % 1016,1 hPa 0,0 l/m 0,5 km/h (0 Bft) S-SO 157 0 min 0,0 UV-I 15,9 C 23,7 C 0,0 km/h (0 Bft)
13.06.2013 11:00 21,9 C 22,2 C 19,5 C 23,3 C 23,3 C 1,4 C 69 % 78 % 37 % 1016,1 hPa 0,0 l/m 0,5 km/h (0 Bft) S 180 0 min 0,0 UV-I 15,9 C 23,3 C 0,0 km/h (0 Bft)
13.06.2013 11:05 21,9 C 22,2 C 19,4 C 23,3 C 23,3 C 1,4 C 70 % 78 % 37 % 1016,1 hPa 0,0 l/m 0,5 km/h (0 Bft) SO 135 0 min 0,0 UV-I 16,2 C 23,3 C 0,0 km/h (0 Bft)
13.06.2013 11:10 21,9 C 22,3 C 19,6 C 23,5 C 23,5 C 1,6 C 70 % 79 % 42 % 1016,1 hPa 0,0 l/m 0,3 km/h (0 Bft) O-SO 112 0 min 0,0 UV-I 16,2 C 23,5 C 2,9 km/h (1 Bft)
13.06.2013 11:15 22,0 C 22,3 C 19,8 C 23,8 C 23,8 C 1,8 C 70 % 78 % 47 % 1015,8 hPa 0,0 l/m 0,5 km/h (0 Bft) S 180 0 min 0,0 UV-I 16,3 C 23,8 C 0,0 km/h (0 Bft)
13.06.2013 11:20 22,3 C 22,3 C 20,1 C 24,7 C 24,7 C 2,4 C 70 % 78 % 63 % 1015,8 hPa 0,0 l/m 0,3 km/h (0 Bft) W-SW 247 0 min 0,0 UV-I 16,6 C 24,7 C 1,6 km/h (1 Bft)
13.06.2013 11:25 22,4 C 22,3 C 20,2 C 25,2 C 25,2 C 2,8 C 70 % 78 % 74 % 1015,8 hPa 0,0 l/m 0,2 km/h (0 Bft) S-SW 202 0 min 0,0 UV-I 16,7 C 25,2 C 0,0 km/h (0 Bft)
13.06.2013 11:30 22,8 C 22,3 C 20,4 C 27,6 C 27,6 C 4,8 C 69 % 78 % 100 % 1015,8 hPa 0,0 l/m 0,2 km/h (0 Bft) SW 225 5 min 0,0 UV-I 16,8 C 27,6 C 2,3 km/h (1 Bft)
13.06.2013 11:35 23,0 C 22,3 C 20,5 C 29,0 C 29,0 C 6,0 C 69 % 78 % 100 % 1015,8 hPa 0,0 l/m 0,5 km/h (0 Bft) S-SO 157 5 min 0,0 UV-I 17,0 C 29,0 C 2,6 km/h (1 Bft)
13.06.2013 11:40 23,2 C 22,3 C 20,8 C 30,3 C 30,3 C 7,1 C 67 % 76 % 100 % 1015,8 hPa 0,0 l/m 0,8 km/h (0 Bft) S-SO 157 5 min 0,0 UV-I 16,7 C 30,3 C 0,0 km/h (0 Bft)
13.06.2013 11:45 23,5 C 22,4 C 20,9 C 30,7 C 30,7 C 7,2 C 66 % 77 % 100 % 1015,8 hPa 0,0 l/m 1,9 km/h (1 Bft) W-SW 247 5 min 0,0 UV-I 16,8 C 30,7 C 2,6 km/h (1 Bft)
13.06.2013 11:50 23,7 C 22,4 C 20,9 C 29,9 C 29,9 C 6,2 C 64 % 74 % 100 % 1015,8 hPa 0,0 l/m 2,6 km/h (1 Bft) SW 225 5 min 0,0 UV-I 16,5 C 29,9 C 8,7 km/h (2 Bft)
13.06.2013 11:55 23,7 C 22,4 C 20,9 C 29,9 C 29,9 C 6,2 C 64 % 75 % 100 % 1015,2 hPa 0,0 l/m 2,6 km/h (1 Bft) N-NW 337 5 min 0,0 UV-I 16,5 C 29,9 C 2,9 km/h (1 Bft)
13.06.2013 12:00 23,9 C 22,4 C 21,0 C 30,0 C 30,0 C 6,1 C 62 % 74 % 100 % 1015,2 hPa 0,0 l/m 2,9 km/h (1 Bft) W-NW 292 5 min 0,0 UV-I 16,2 C 30,0 C 9,3 km/h (2 Bft)
13.06.2013 12:05 23,9 C 22,4 C 21,0 C 29,9 C 29,9 C 6,0 C 63 % 74 % 100 % 1015,2 hPa 0,0 l/m 2,4 km/h (1 Bft) W 270 5 min 0,0 UV-I 16,4 C 29,9 C 1,9 km/h (1 Bft)
13.06.2013 12:10 24,4 C 22,4 C 21,5 C 30,2 C 30,2 C 5,8 C 63 % 73 % 100 % 1015,2 hPa 0,0 l/m 2,9 km/h (1 Bft) S 180 5 min 0,1 UV-I 16,9 C 30,2 C 2,3 km/h (1 Bft)
13.06.2013 12:15 24,6 C 22,4 C 21,6 C 30,2 C 30,2 C 5,6 C 62 % 74 % 100 % 1015,2 hPa 0,0 l/m 3,2 km/h (1 Bft) S 180 5 min 0,1 UV-I 16,8 C 30,2 C 4,7 km/h (1 Bft)
13.06.2013 12:20 24,9 C 22,5 C 21,7 C 29,1 C 29,1 C 4,2 C 62 % 72 % 100 % 1015,2 hPa 0,0 l/m 2,3 km/h (1 Bft) S-SW 202 5 min 0,0 UV-I 17,1 C 29,1 C 5,1 km/h (1 Bft)
13.06.2013 12:25 24,7 C 22,5 C 21,6 C 28,3 C 28,3 C 3,6 C 61 % 73 % 95 % 1015,2 hPa 0,0 l/m 2,6 km/h (1 Bft) N-NO 22 5 min 0,0 UV-I 16,7 C 28,3 C 1,8 km/h (1 Bft)
13.06.2013 12:30 24,6 C 22,5 C 21,7 C 28,2 C 28,2 C 3,6 C 62 % 73 % 95 % 1015,2 hPa 0,0 l/m 2,6 km/h (1 Bft) S 180 5 min 0,0 UV-I 16,8 C 28,2 C 9,7 km/h (2 Bft)
13.06.2013 12:35 24,7 C 22,5 C 21,8 C 28,1 C 28,1 C 3,4 C 61 % 72 % 89 % 1014,9 hPa 0,0 l/m 1,8 km/h (1 Bft) NW 315 5 min 0,0 UV-I 16,7 C 28,1 C 2,1 km/h (1 Bft)
13.06.2013 12:41 24,9 C 22,5 C 21,9 C 28,5 C 28,5 C 3,6 C 62 % 73 % 95 % 1014,9 hPa 0,0 l/m 2,3 km/h (1 Bft) N 0 6 min 0,0 UV-I 17,1 C 28,5 C 0,0 km/h (0 Bft)
13.06.2013 13:00 26,3 C 22,5 C 23,2 C 30,7 C 30,7 C 4,4 C 59 % 71 % 100 % 1014,6 hPa 0,0 l/m 3,2 km/h (1 Bft) W-SW 247 19 min 0,1 UV-I 17,6 C 30,7 C 12,1 km/h (2 Bft)
13.06.2013 13:05 26,3 C 22,5 C 23,5 C 30,4 C 30,4 C 4,1 C 58 % 70 % 100 % 1014,6 hPa 0,0 l/m 4,2 km/h (1 Bft) S-SO 157 5 min 0,1 UV-I 17,4 C 30,4 C 4,5 km/h (1 Bft)
13.06.2013 13:10 26,7 C 22,5 C 23,6 C 31,0 C 31,0 C 4,3 C 58 % 68 % 100 % 1014,6 hPa 0,0 l/m 2,9 km/h (1 Bft) N-NW 337 5 min 0,1 UV-I 17,7 C 31,0 C 0,0 km/h (0 Bft)
13.06.2013 13:15 27,1 C 22,6 C 23,7 C 31,4 C 31,4 C 4,3 C 56 % 67 % 100 % 1014,6 hPa 0,0 l/m 1,0 km/h (0 Bft) N-NO 22 5 min 0,1 UV-I 17,5 C 31,4 C 0,0 km/h (0 Bft)
13.06.2013 13:20 27,1 C 22,6 C 23,8 C 31,6 C 31,6 C 4,5 C 57 % 70 % 100 % 1014,6 hPa 0,0 l/m 2,4 km/h (1 Bft) W-SW 247 5 min 0,1 UV-I 17,8 C 31,6 C 9,0 km/h (2 Bft)
13.06.2013 13:25 27,0 C 22,6 C 23,5 C 30,9 C 30,9 C 3,9 C 56 % 71 % 100 % 1014,6 hPa 0,0 l/m 4,0 km/h (1 Bft) SW 225 5 min 0,1 UV-I 17,5 C 30,9 C 4,7 km/h (1 Bft)
13.06.2013 13:30 26,6 C 22,6 C 23,2 C 29,2 C 29,2 C 2,6 C 56 % 70 % 68 % 1014,6 hPa 0,0 l/m 3,7 km/h (1 Bft) SW 225 0 min 0,0 UV-I 17,1 C 29,2 C 15,3 km/h (3 Bft)
13.06.2013 13:35 26,7 C 22,6 C 23,6 C 29,7 C 29,7 C 3,0 C 57 % 71 % 79 % 1014,1 hPa 0,0 l/m 3,1 km/h (1 Bft) SO 135 0 min 0,0 UV-I 17,5 C 29,7 C 5,8 km/h (2 Bft)
13.06.2013 13:40 26,7 C 22,6 C 23,5 C 29,7 C 29,7 C 3,0 C 56 % 70 % 79 % 1014,1 hPa 0,0 l/m 3,5 km/h (1 Bft) SO 135 0 min 0,0 UV-I 17,2 C 29,7 C 6,8 km/h (2 Bft)
13.06.2013 13:45 26,9 C 22,6 C 23,9 C 30,1 C 30,1 C 3,2 C 57 % 72 % 84 % 1014,1 hPa 0,0 l/m 2,7 km/h (1 Bft) W-SW 247 0 min 0,0 UV-I 17,6 C 30,1 C 4,2 km/h (1 Bft)
13.06.2013 13:50 27,2 C 22,7 C 24,5 C 30,9 C 30,9 C 3,7 C 55 % 68 % 97 % 1014,1 hPa 0,0 l/m 2,9 km/h (1 Bft) SW 225 5 min 0,0 UV-I 17,4 C 30,9 C 16,4 km/h (3 Bft)
13.06.2013 13:55 27,4 C 22,7 C 24,7 C 31,4 C 31,4 C 4,0 C 56 % 69 % 100 % 1014,1 hPa 0,0 l/m 2,7 km/h (1 Bft) W 270 5 min 0,0 UV-I 17,8 C 31,4 C 2,4 km/h (1 Bft)
13.06.2013 14:00 27,7 C 22,7 C 24,7 C 32,1 C 32,1 C 4,4 C 56 % 69 % 100 % 1014,1 hPa 0,0 l/m 2,1 km/h (1 Bft) SW 225 5 min 0,1 UV-I 18,1 C 32,1 C 2,9 km/h (1 Bft)
13.06.2013 14:05 27,8 C 22,7 C 24,6 C 32,4 C 32,4 C 4,6 C 55 % 66 % 100 % 1014,1 hPa 0,0 l/m 1,8 km/h (1 Bft) S-SO 157 5 min 0,1 UV-I 17,9 C 32,4 C 0,0 km/h (0 Bft)
13.06.2013 14:10 27,7 C 22,8 C 24,6 C 31,6 C 31,6 C 3,9 C 55 % 69 % 100 % 1014,1 hPa 0,0 l/m 2,6 km/h (1 Bft) W 270 5 min 0,0 UV-I 17,8 C 31,6 C 9,7 km/h (2 Bft)
13.06.2013 14:15 27,7 C 22,8 C 24,6 C 31,6 C 31,6 C 3,9 C 54 % 69 % 100 % 1014,1 hPa 0,0 l/m 3,7 km/h (1 Bft) W 270 5 min 0,0 UV-I 17,5 C 31,6 C 4,8 km/h (1 Bft)
13.06.2013 14:20 27,9 C 22,7 C 24,8 C 31,9 C 31,9 C 4,0 C 55 % 70 % 100 % 1014,1 hPa 0,0 l/m 5,5 km/h (1 Bft) W-SW 247 5 min 0,0 UV-I 18,0 C 31,9 C 9,5 km/h (2 Bft)
13.06.2013 14:25 28,1 C 22,7 C 24,8 C 31,8 C 31,8 C 3,7 C 53 % 69 % 97 % 1014,1 hPa 0,0 l/m 5,8 km/h (2 Bft) W-SW 247 5 min 0,0 UV-I 17,6 C 31,8 C 13,0 km/h (3 Bft)
13.06.2013 14:30 27,9 C 22,7 C 24,7 C 31,1 C 31,1 C 3,2 C 53 % 65 % 84 % 1014,1 hPa 0,0 l/m 6,3 km/h (2 Bft) S-SO 157 0 min 0,0 UV-I 17,4 C 31,1 C 3,1 km/h (1 Bft)
13.06.2013 14:35 27,8 C 22,8 C 25,0 C 31,4 C 31,4 C 3,6 C 55 % 68 % 95 % 1013,9 hPa 0,0 l/m 4,7 km/h (1 Bft) SO 135 5 min 0,0 UV-I 17,9 C 31,4 C 2,9 km/h (1 Bft)
13.06.2013 14:40 28,0 C 22,8 C 25,1 C 31,8 C 31,8 C 3,8 C 55 % 68 % 100 % 1013,9 hPa 0,0 l/m 2,4 km/h (1 Bft) W 270 5 min 0,0 UV-I 18,1 C 31,8 C 11,1 km/h (2 Bft)
13.06.2013 14:45 28,0 C 22,8 C 25,0 C 31,8 C 31,8 C 3,8 C 53 % 69 % 100 % 1013,9 hPa 0,0 l/m 4,2 km/h (1 Bft) W-SW 247 5 min 0,0 UV-I 17,5 C 31,8 C 9,0 km/h (2 Bft)
13.06.2013 14:50 27,8 C 22,8 C 24,9 C 31,1 C 31,1 C 3,3 C 52 % 68 % 87 % 1013,9 hPa 0,0 l/m 6,6 km/h (2 Bft) SW 225 5 min 0,0 UV-I 17,0 C 31,1 C 5,5 km/h (1 Bft)
13.06.2013 14:55 28,0 C 22,8 C 25,1 C 31,3 C 31,3 C 3,3 C 53 % 67 % 87 % 1013,6 hPa 0,0 l/m 5,5 km/h (1 Bft) S-SW 202 5 min 0,0 UV-I 17,5 C 31,3 C 3,9 km/h (1 Bft)
13.06.2013 15:00 28,3 C 22,9 C 25,2 C 31,9 C 31,9 C 3,6 C 53 % 67 % 95 % 1013,6 hPa 0,0 l/m 4,2 km/h (1 Bft) W 270 5 min 0,0 UV-I 17,8 C 31,9 C 4,3 km/h (1 Bft)
13.06.2013 15:05 28,4 C 22,9 C 25,3 C 31,9 C 31,9 C 3,5 C 51 % 68 % 92 % 1013,6 hPa 0,0 l/m 5,3 km/h (1 Bft) S-SO 157 5 min 0,0 UV-I 17,3 C 31,9 C 11,3 km/h (2 Bft)
13.06.2013 15:10 28,1 C 22,9 C 25,1 C 31,6 C 31,6 C 3,5 C 51 % 67 % 92 % 1013,6 hPa 0,0 l/m 6,8 km/h (2 Bft) S-SW 202 5 min 0,0 UV-I 17,0 C 31,6 C 8,0 km/h (2 Bft)
13.06.2013 15:15 28,1 C 22,9 C 25,1 C 31,6 C 31,6 C 3,5 C 52 % 65 % 92 % 1013,7 hPa 0,0 l/m 6,0 km/h (2 Bft) S 180 5 min 0,0 UV-I 17,3 C 31,6 C 3,1 km/h (1 Bft)
13.06.2013 15:20 28,4 C 23,0 C 25,2 C 32,0 C 32,0 C 3,6 C 53 % 64 % 95 % 1013,7 hPa 0,0 l/m 3,1 km/h (1 Bft) W-SW 247 5 min 0,0 UV-I 17,9 C 32,0 C 5,3 km/h (1 Bft)
13.06.2013 15:25 28,6 C 23,0 C 25,5 C 32,4 C 32,4 C 3,8 C 52 % 65 % 100 % 1013,7 hPa 0,0 l/m 3,2 km/h (1 Bft) W 270 5 min 0,0 UV-I 17,8 C 32,4 C 4,2 km/h (1 Bft)
13.06.2013 15:30 28,7 C 23,0 C 25,5 C 32,7 C 32,7 C 4,0 C 52 % 62 % 100 % 1013,7 hPa 0,0 l/m 3,2 km/h (1 Bft) NO 45 5 min 0,0 UV-I 17,8 C 32,7 C 0,0 km/h (0 Bft)
13.06.2013 15:35 28,9 C 23,0 C 25,7 C 33,4 C 33,4 C 4,5 C 54 % 65 % 100 % 1013,3 hPa 0,0 l/m 1,8 km/h (1 Bft) O-SO 112 5 min 0,0 UV-I 18,6 C 33,4 C 1,8 km/h (1 Bft)
13.06.2013 15:40 29,1 C 23,1 C 25,5 C 34,2 C 34,2 C 5,1 C 50 % 64 % 100 % 1013,3 hPa 0,0 l/m 1,1 km/h (1 Bft) SW 225 5 min 0,0 UV-I 17,6 C 34,2 C 5,3 km/h (1 Bft)
13.06.2013 15:45 29,1 C 23,1 C 25,3 C 33,6 C 33,6 C 4,5 C 50 % 66 % 100 % 1013,3 hPa 0,0 l/m 1,3 km/h (1 Bft) W 270 5 min 0,0 UV-I 17,6 C 33,6 C 1,6 km/h (1 Bft)
13.06.2013 15:50 29,1 C 23,1 C 25,5 C 33,1 C 33,1 C 4,0 C 51 % 68 % 100 % 1013,3 hPa 0,0 l/m 1,9 km/h (1 Bft) W 270 5 min 0,0 UV-I 17,9 C 33,1 C 0,0 km/h (0 Bft)
13.06.2013 15:55 29,2 C 23,1 C 25,7 C 33,6 C 33,6 C 4,4 C 52 % 66 % 100 % 1013,1 hPa 0,0 l/m 1,6 km/h (1 Bft) S 180 5 min 0,0 UV-I 18,3 C 33,6 C 1,6 km/h (1 Bft)
13.06.2013 16:00 29,3 C 23,2 C 25,6 C 33,5 C 33,5 C 4,2 C 50 % 67 % 100 % 1013,1 hPa 0,0 l/m 2,4 km/h (1 Bft) W-SW 247 5 min 0,0 UV-I 17,8 C 33,5 C 5,0 km/h (1 Bft)
13.06.2013 16:05 29,3 C 23,2 C 25,5 C 33,1 C 33,1 C 3,8 C 50 % 64 % 100 % 1013,1 hPa 0,0 l/m 3,2 km/h (1 Bft) O-SO 112 5 min 0,0 UV-I 17,8 C 33,1 C 3,4 km/h (1 Bft)
13.06.2013 16:10 29,1 C 23,2 C 25,3 C 32,3 C 32,3 C 3,2 C 50 % 66 % 84 % 1013,1 hPa 0,0 l/m 2,4 km/h (1 Bft) SW 225 0 min 0,0 UV-I 17,6 C 32,3 C 3,1 km/h (1 Bft)
13.06.2013 16:15 29,1 C 23,2 C 25,4 C 32,3 C 32,3 C 3,2 C 49 % 66 % 84 % 1012,9 hPa 0,0 l/m 1,9 km/h (1 Bft) W-SW 247 0 min 0,0 UV-I 17,3 C 32,3 C 4,0 km/h (1 Bft)
13.06.2013 16:20 29,4 C 23,3 C 25,6 C 33,2 C 33,2 C 3,8 C 49 % 66 % 100 % 1012,9 hPa 0,0 l/m 1,8 km/h (1 Bft) S 180 5 min 0,0 UV-I 17,5 C 33,2 C 4,3 km/h (1 Bft)
13.06.2013 16:25 29,4 C 23,3 C 25,7 C 33,5 C 33,5 C 4,1 C 49 % 67 % 100 % 1012,9 hPa 0,0 l/m 2,7 km/h (1 Bft) SW 225 5 min 0,0 UV-I 17,5 C 33,5 C 10,9 km/h (2 Bft)
13.06.2013 16:30 29,3 C 23,3 C 25,4 C 32,7 C 32,7 C 3,4 C 50 % 64 % 89 % 1012,9 hPa 0,0 l/m 3,7 km/h (1 Bft) S 180 5 min 0,0 UV-I 17,8 C 32,7 C 4,3 km/h (1 Bft)
13.06.2013 16:35 29,0 C 23,3 C 25,4 C 32,3 C 32,3 C 3,3 C 51 % 66 % 87 % 1012,7 hPa 0,0 l/m 2,6 km/h (1 Bft) S 180 5 min 0,0 UV-I 17,8 C 32,3 C 0,0 km/h (0 Bft)
13.06.2013 16:40 28,8 C 23,3 C 25,5 C 32,5 C 32,5 C 3,7 C 50 % 64 % 97 % 1012,7 hPa 0,0 l/m 1,6 km/h (1 Bft) W 270 5 min 0,0 UV-I 17,3 C 32,5 C 3,9 km/h (1 Bft)
13.06.2013 16:45 28,8 C 23,4 C 25,4 C 32,3 C 32,3 C 3,5 C 50 % 66 % 92 % 1012,7 hPa 0,0 l/m 2,1 km/h (1 Bft) S-SO 157 5 min 0,0 UV-I 17,3 C 32,3 C 2,6 km/h (1 Bft)
13.06.2013 16:50 28,9 C 23,4 C 25,3 C 32,2 C 32,2 C 3,3 C 50 % 66 % 87 % 1012,7 hPa 0,0 l/m 2,7 km/h (1 Bft) SW 225 5 min 0,0 UV-I 17,4 C 32,2 C 4,8 km/h (1 Bft)
13.06.2013 16:55 28,8 C 23,4 C 25,3 C 31,8 C 31,8 C 3,0 C 51 % 65 % 79 % 1012,8 hPa 0,0 l/m 2,1 km/h (1 Bft) S 180 0 min 0,0 UV-I 17,6 C 31,8 C 1,6 km/h (1 Bft)
13.06.2013 17:00 29,0 C 23,4 C 25,5 C 32,5 C 32,5 C 3,5 C 51 % 68 % 92 % 1012,8 hPa 0,0 l/m 2,7 km/h (1 Bft) SO 135 5 min 0,0 UV-I 17,8 C 32,5 C 2,6 km/h (1 Bft)
13.06.2013 17:05 29,2 C 23,5 C 25,7 C 32,9 C 32,9 C 3,7 C 51 % 65 % 97 % 1012,8 hPa 0,0 l/m 2,6 km/h (1 Bft) SW 225 5 min 0,0 UV-I 18,0 C 32,9 C 1,9 km/h (1 Bft)
13.06.2013 17:10 29,5 C 23,5 C 25,6 C 33,3 C 33,3 C 3,8 C 51 % 68 % 100 % 1012,8 hPa 0,0 l/m 2,6 km/h (1 Bft) W-SW 247 5 min 0,0 UV-I 18,3 C 33,3 C 4,2 km/h (1 Bft)
13.06.2013 17:15 29,6 C 23,5 C 25,6 C 32,8 C 32,8 C 3,2 C 49 % 68 % 84 % 1012,3 hPa 0,0 l/m 3,7 km/h (1 Bft) S-SO 157 0 min 0,0 UV-I 17,7 C 32,8 C 7,9 km/h (2 Bft)
13.06.2013 17:20 28,9 C 23,5 C 25,2 C 31,3 C 31,3 C 2,4 C 48 % 67 % 63 % 1012,3 hPa 0,0 l/m 5,3 km/h (1 Bft) S-SW 202 0 min 0,0 UV-I 16,8 C 31,3 C 10,0 km/h (2 Bft)
13.06.2013 17:25 28,6 C 23,5 C 25,0 C 30,5 C 30,5 C 1,9 C 50 % 68 % 50 % 1012,3 hPa 0,0 l/m 5,1 km/h (1 Bft) S-SW 202 0 min 0,0 UV-I 17,1 C 30,5 C 4,0 km/h (1 Bft)
13.06.2013 17:30 28,5 C 23,6 C 25,1 C 30,3 C 30,3 C 1,8 C 51 % 69 % 47 % 1012,3 hPa 0,0 l/m 4,5 km/h (1 Bft) SW 225 0 min 0,0 UV-I 17,4 C 30,3 C 3,7 km/h (1 Bft)
13.06.2013 17:35 28,6 C 23,6 C 25,2 C 31,0 C 31,0 C 2,4 C 53 % 69 % 63 % 1011,9 hPa 0,0 l/m 3,2 km/h (1 Bft) S 180 0 min 0,0 UV-I 18,1 C 31,0 C 1,9 km/h (1 Bft)
13.06.2013 17:40 29,0 C 23,6 C 25,2 C 31,6 C 31,6 C 2,6 C 52 % 69 % 68 % 1011,9 hPa 0,0 l/m 1,0 km/h (0 Bft) S-SO 157 0 min 0,0 UV-I 18,1 C 31,6 C 0,0 km/h (0 Bft)
13.06.2013 17:45 29,0 C 23,6 C 25,0 C 31,6 C 31,6 C 2,6 C 51 % 67 % 68 % 1011,9 hPa 0,0 l/m 0,5 km/h (0 Bft) SW 225 0 min 0,0 UV-I 17,8 C 31,6 C 0,0 km/h (0 Bft)
13.06.2013 17:50 28,9 C 23,6 C 24,9 C 31,2 C 31,2 C 2,3 C 52 % 69 % 61 % 1011,9 hPa 0,0 l/m 0,2 km/h (0 Bft) W 270 0 min 0,0 UV-I 18,0 C 31,2 C 0,0 km/h (0 Bft)
13.06.2013 17:55 28,8 C 23,6 C 24,8 C 31,0 C 31,0 C 2,2 C 52 % 69 % 58 % 1011,8 hPa 0,0 l/m 0,6 km/h (0 Bft) W 270 0 min 0,0 UV-I 17,9 C 31,0 C 2,7 km/h (1 Bft)
13.06.2013 18:00 28,9 C 23,7 C 24,9 C 31,3 C 31,3 C 2,4 C 51 % 70 % 63 % 1011,8 hPa 0,0 l/m 1,9 km/h (1 Bft) S 180 0 min 0,0 UV-I 17,7 C 31,3 C 1,6 km/h (1 Bft)
13.06.2013 18:05 29,0 C 23,7 C 24,9 C 31,3 C 31,3 C 2,3 C 52 % 70 % 61 % 1011,8 hPa 0,0 l/m 1,6 km/h (1 Bft) S-SO 157 0 min 0,0 UV-I 18,1 C 31,3 C 0,0 km/h (0 Bft)
13.06.2013 18:10 28,8 C 23,7 C 24,8 C 31,0 C 31,0 C 2,2 C 53 % 70 % 58 % 1011,8 hPa 0,0 l/m 0,3 km/h (0 Bft) O-NO 67 0 min 0,0 UV-I 18,2 C 31,0 C 0,0 km/h (0 Bft)
13.06.2013 18:15 28,8 C 23,7 C 24,9 C 31,2 C 31,2 C 2,4 C 54 % 70 % 63 % 1011,5 hPa 0,0 l/m 0,0 km/h (0 Bft) W-SW 247 0 min 0,0 UV-I 18,5 C 31,2 C 0,0 km/h (0 Bft)
13.06.2013 18:20 28,8 C 23,7 C 25,2 C 32,8 C 32,8 C 4,0 C 53 % 69 % 100 % 1011,5 hPa 0,0 l/m 0,8 km/h (0 Bft) W-SW 247 5 min 0,0 UV-I 18,2 C 32,8 C 4,5 km/h (1 Bft)
13.06.2013 18:25 29,3 C 23,7 C 25,4 C 33,5 C 33,5 C 4,2 C 53 % 69 % 100 % 1011,5 hPa 0,0 l/m 1,3 km/h (1 Bft) NW 315 5 min 0,0 UV-I 18,7 C 33,5 C 0,0 km/h (0 Bft)
13.06.2013 18:30 29,5 C 23,7 C 25,5 C 34,2 C 34,2 C 4,7 C 51 % 69 % 100 % 1011,5 hPa 0,0 l/m 1,8 km/h (1 Bft) S 180 5 min 0,0 UV-I 18,3 C 34,2 C 2,3 km/h (1 Bft)
13.06.2013 18:35 29,8 C 23,8 C 25,4 C 34,1 C 34,1 C 4,3 C 50 % 69 % 100 % 1011,2 hPa 0,0 l/m 2,3 km/h (1 Bft) SW 225 5 min 0,0 UV-I 18,2 C 34,1 C 7,9 km/h (2 Bft)
13.06.2013 18:41 30,0 C 23,8 C 25,5 C 33,5 C 33,5 C 3,5 C 50 % 69 % 92 % 1011,2 hPa 0,0 l/m 2,7 km/h (1 Bft) N 0 6 min 0,0 UV-I 18,4 C 33,5 C 0,0 km/h (0 Bft)
13.06.2013 19:00 29,8 C 23,8 C 25,3 C 32,9 C 32,9 C 3,1 C 49 % 68 % 82 % 1010,7 hPa 0,0 l/m 1,9 km/h (1 Bft) S 180 0 min 0,0 UV-I 17,9 C 32,9 C 0,0 km/h (0 Bft)
13.06.2013 19:05 29,7 C 23,8 C 25,3 C 32,9 C 32,9 C 3,2 C 50 % 68 % 84 % 1010,7 hPa 0,0 l/m 1,4 km/h (1 Bft) N 360 5 min 0,0 UV-I 18,1 C 32,9 C 1,8 km/h (1 Bft)
13.06.2013 19:10 29,7 C 23,8 C 25,3 C 33,0 C 33,0 C 3,3 C 50 % 68 % 87 % 1010,7 hPa 0,0 l/m 0,8 km/h (0 Bft) S 180 5 min 0,0 UV-I 18,1 C 33,0 C 0,0 km/h (0 Bft)
13.06.2013 19:15 29,5 C 23,8 C 25,2 C 33,0 C 33,0 C 3,5 C 50 % 69 % 92 % 1010,4 hPa 0,0 l/m 0,6 km/h (0 Bft) N 360 5 min 0,0 UV-I 18,0 C 33,0 C 0,0 km/h (0 Bft)
13.06.2013 19:20 29,1 C 23,9 C 25,2 C 32,9 C 32,9 C 3,8 C 51 % 68 % 100 % 1010,4 hPa 0,0 l/m 0,2 km/h (0 Bft) O-NO 67 5 min 0,0 UV-I 17,9 C 32,9 C 0,0 km/h (0 Bft)
13.06.2013 19:25 29,1 C 23,9 C 25,1 C 32,9 C 32,9 C 3,8 C 52 % 69 % 100 % 1010,4 hPa 0,0 l/m 0,0 km/h (0 Bft) O-SO 112 5 min 0,0 UV-I 18,2 C 32,9 C 0,0 km/h (0 Bft)
13.06.2013 19:30 28,6 C 23,9 C 24,9 C 32,5 C 32,5 C 3,9 C 52 % 70 % 100 % 1010,4 hPa 0,0 l/m 0,0 km/h (0 Bft) O 90 5 min 0,0 UV-I 17,8 C 32,5 C 0,0 km/h (0 Bft)
13.06.2013 19:35 28,4 C 23,9 C 24,8 C 32,3 C 32,3 C 3,9 C 52 % 70 % 100 % 1010,6 hPa 0,0 l/m 0,0 km/h (0 Bft) O-NO 67 5 min 0,0 UV-I 17,6 C 32,3 C 0,0 km/h (0 Bft)
13.06.2013 19:40 27,9 C 23,9 C 24,5 C 31,6 C 31,6 C 3,7 C 53 % 71 % 97 % 1010,6 hPa 0,0 l/m 0,0 km/h (0 Bft) O-NO 67 5 min 0,0 UV-I 17,4 C 31,6 C 0,0 km/h (0 Bft)
13.06.2013 19:45 27,6 C 23,9 C 24,3 C 31,1 C 31,1 C 3,5 C 53 % 71 % 92 % 1010,6 hPa 0,0 l/m 0,0 km/h (0 Bft) O-NO 67 5 min 0,0 UV-I 17,1 C 31,1 C 0,0 km/h (0 Bft)
13.06.2013 19:50 27,1 C 24,0 C 24,0 C 29,7 C 29,7 C 2,6 C 55 % 72 % 68 % 1010,6 hPa 0,0 l/m 0,0 km/h (0 Bft) O-SO 112 5 min 0,0 UV-I 17,3 C 29,7 C 0,0 km/h (0 Bft)
13.06.2013 19:55 26,9 C 24,0 C 23,9 C 29,4 C 29,4 C 2,5 C 56 % 72 % 66 % 1010,4 hPa 0,0 l/m 0,0 km/h (0 Bft) O-NO 67 5 min 0,0 UV-I 17,4 C 29,4 C 0,0 km/h (0 Bft)
13.06.2013 20:00 26,6 C 24,0 C 23,8 C 29,5 C 29,5 C 2,9 C 56 % 73 % 76 % 1010,4 hPa 0,0 l/m 0,0 km/h (0 Bft) O-NO 67 5 min 0,0 UV-I 17,1 C 29,5 C 0,0 km/h (0 Bft)
13.06.2013 20:05 26,5 C 24,0 C 23,6 C 29,4 C 29,4 C 2,9 C 56 % 73 % 76 % 1010,4 hPa 0,0 l/m 0,0 km/h (0 Bft) NO 45 5 min 0,0 UV-I 17,0 C 29,4 C 0,0 km/h (0 Bft)
13.06.2013 20:10 26,2 C 24,0 C 23,5 C 28,4 C 28,4 C 2,2 C 57 % 74 % 58 % 1010,4 hPa 0,0 l/m 0,0 km/h (0 Bft) O-NO 67 5 min 0,0 UV-I 17,0 C 28,4 C 0,0 km/h (0 Bft)
13.06.2013 20:15 26,0 C 24,0 C 23,5 C 27,5 C 27,5 C 1,5 C 57 % 75 % 39 % 1010,1 hPa 0,0 l/m 0,0 km/h (0 Bft) O-NO 67 5 min 0,0 UV-I 16,8 C 27,5 C 0,0 km/h (0 Bft)
13.06.2013 20:20 25,7 C 24,1 C 23,0 C 26,5 C 26,5 C 0,8 C 59 % 75 % 21 % 1010,1 hPa 0,0 l/m 0,0 km/h (0 Bft) O-NO 67 0 min 0,0 UV-I 17,1 C 26,5 C 0,0 km/h (0 Bft)
13.06.2013 20:25 25,6 C 24,1 C 22,8 C 25,9 C 25,9 C 0,3 C 60 % 76 % 8 % 1010,1 hPa 0,0 l/m 0,0 km/h (0 Bft) W-SW 247 0 min 0,0 UV-I 17,2 C 25,9 C 0,0 km/h (0 Bft)
13.06.2013 20:30 25,4 C 24,1 C 22,4 C 25,3 C 25,0 C 0,0 C 63 % 77 % 0 % 1010,1 hPa 0,0 l/m 0,0 km/h (0 Bft) W-SW 247 0 min 0,0 UV-I 17,8 C 25,0 C 0,0 km/h (0 Bft)
13.06.2013 20:35 25,2 C 24,1 C 22,3 C 25,0 C 24,5 C 0,0 C 64 % 77 % 0 % 1010,2 hPa 0,0 l/m 0,0 km/h (0 Bft) W-SW 247 0 min 0,0 UV-I 17,9 C 24,5 C 0,0 km/h (0 Bft)
13.06.2013 20:40 24,8 C 24,1 C 22,0 C 24,5 C 23,9 C 0,0 C 65 % 77 % 0 % 1010,2 hPa 0,0 l/m 0,0 km/h (0 Bft) W-SW 247 0 min 0,0 UV-I 17,8 C 23,9 C 0,0 km/h (0 Bft)
13.06.2013 20:45 24,7 C 24,2 C 21,8 C 24,3 C 23,4 C 0,0 C 66 % 77 % 0 % 1010,2 hPa 0,0 l/m 0,0 km/h (0 Bft) W-SW 247 0 min 0,0 UV-I 17,9 C 23,4 C 0,0 km/h (0 Bft)
13.06.2013 20:50 24,2 C 24,2 C 21,6 C 23,8 C 23,0 C 0,0 C 67 % 78 % 0 % 1010,2 hPa 0,0 l/m 0,0 km/h (0 Bft) O 90 0 min 0,0 UV-I 17,7 C 23,0 C 0,0 km/h (0 Bft)
13.06.2013 20:55 23,9 C 24,2 C 21,4 C 23,5 C 22,6 C 0,0 C 68 % 78 % 0 % 1009,8 hPa 0,0 l/m 0,0 km/h (0 Bft) O-NO 67 0 min 0,0 UV-I 17,6 C 22,6 C 0,0 km/h (0 Bft)
13.06.2013 21:00 23,5 C 24,2 C 21,3 C 23,1 C 22,2 C 0,0 C 70 % 78 % 0 % 1009,8 hPa 0,0 l/m 0,0 km/h (0 Bft) O-NO 67 0 min 0,0 UV-I 17,7 C 22,2 C 0,0 km/h (0 Bft)
13.06.2013 21:05 23,2 C 24,2 C 21,1 C 22,7 C 21,8 C 0,0 C 71 % 78 % 0 % 1009,8 hPa 0,0 l/m 0,0 km/h (0 Bft) O-NO 67 0 min 0,0 UV-I 17,6 C 21,8 C 0,0 km/h (0 Bft)
13.06.2013 21:10 22,9 C 24,2 C 20,8 C 22,4 C 21,5 C 0,0 C 71 % 79 % 0 % 1009,8 hPa 0,0 l/m 0,0 km/h (0 Bft) O-NO 67 0 min 0,0 UV-I 17,4 C 21,5 C 0,0 km/h (0 Bft)
13.06.2013 21:15 22,7 C 24,2 C 20,7 C 22,2 C 21,2 C 0,0 C 72 % 79 % 0 % 1009,7 hPa 0,0 l/m 0,0 km/h (0 Bft) O-NO 67 0 min 0,0 UV-I 17,4 C 21,2 C 0,0 km/h (0 Bft)
13.06.2013 21:20 22,4 C 24,2 C 20,5 C 21,8 C 20,7 C 0,0 C 73 % 80 % 0 % 1009,7 hPa 0,0 l/m 0,0 km/h (0 Bft) SW 225 0 min 0,0 UV-I 17,3 C 20,7 C 0,0 km/h (0 Bft)
13.06.2013 21:25 22,3 C 24,3 C 20,4 C 21,7 C 20,4 C 0,0 C 74 % 80 % 0 % 1009,7 hPa 0,0 l/m 0,0 km/h (0 Bft) SW 225 0 min 0,0 UV-I 17,4 C 20,4 C 0,0 km/h (0 Bft)
13.06.2013 21:30 22,0 C 24,3 C 20,3 C 21,4 C 20,1 C 0,0 C 75 % 80 % 0 % 1009,7 hPa 0,0 l/m 0,0 km/h (0 Bft) SW 225 0 min 0,0 UV-I 17,4 C 20,1 C 0,0 km/h (0 Bft)
13.06.2013 21:35 21,8 C 24,4 C 20,1 C 21,1 C 19,8 C 0,0 C 76 % 80 % 0 % 1009,8 hPa 0,0 l/m 0,0 km/h (0 Bft) SW 225 0 min 0,0 UV-I 17,4 C 19,8 C 0,0 km/h (0 Bft)
13.06.2013 21:40 21,4 C 24,4 C 19,9 C 20,8 C 19,5 C 0,0 C 77 % 81 % 0 % 1009,8 hPa 0,0 l/m 0,0 km/h (0 Bft) SW 225 0 min 0,0 UV-I 17,2 C 19,5 C 0,0 km/h (0 Bft)
13.06.2013 21:45 21,3 C 24,4 C 19,8 C 20,7 C 19,4 C 0,0 C 78 % 81 % 0 % 1009,8 hPa 0,0 l/m 0,0 km/h (0 Bft) SW 225 0 min 0,0 UV-I 17,3 C 19,4 C 0,0 km/h (0 Bft)
13.06.2013 21:50 21,1 C 24,4 C 19,7 C 20,4 C 19,1 C 0,0 C 78 % 81 % 0 % 1009,8 hPa 0,0 l/m 0,0 km/h (0 Bft) SW 225 0 min 0,0 UV-I 17,1 C 19,1 C 0,0 km/h (0 Bft)
13.06.2013 21:55 20,8 C 24,5 C 19,6 C 20,1 C 18,7 C 0,0 C 78 % 81 % 0 % 1009,6 hPa 0,0 l/m 0,0 km/h (0 Bft) SW 225 0 min 0,0 UV-I 16,8 C 18,7 C 0,0 km/h (0 Bft)
13.06.2013 22:00 20,7 C 24,6 C 19,5 C 19,9 C 18,4 C 0,0 C 79 % 81 % 0 % 1009,6 hPa 0,0 l/m 0,0 km/h (0 Bft) W-SW 247 0 min 0,0 UV-I 16,9 C 18,4 C 0,0 km/h (0 Bft)
13.06.2013 22:05 20,4 C 24,6 C 19,3 C 19,7 C 18,3 C 0,0 C 80 % 81 % 0 % 1009,6 hPa 0,0 l/m 0,0 km/h (0 Bft) SW 225 0 min 0,0 UV-I 16,8 C 18,3 C 0,0 km/h (0 Bft)
13.06.2013 22:10 20,2 C 24,6 C 19,1 C 19,5 C 18,2 C 0,0 C 81 % 81 % 0 % 1009,6 hPa 0,0 l/m 0,0 km/h (0 Bft) SW 225 0 min 0,0 UV-I 16,8 C 18,2 C 0,0 km/h (0 Bft)
13.06.2013 22:15 20,1 C 24,6 C 19,0 C 19,4 C 18,1 C 0,0 C 81 % 81 % 0 % 1009,4 hPa 0,0 l/m 0,0 km/h (0 Bft) SW 225 0 min 0,0 UV-I 16,7 C 18,1 C 0,0 km/h (0 Bft)
13.06.2013 22:20 19,7 C 24,6 C 18,9 C 19,1 C 18,0 C 0,0 C 81 % 81 % 0 % 1009,4 hPa 0,0 l/m 0,0 km/h (0 Bft) SW 225 0 min 0,0 UV-I 16,3 C 18,0 C 0,0 km/h (0 Bft)
13.06.2013 22:25 19,6 C 24,6 C 18,8 C 19,0 C 17,9 C 0,0 C 81 % 81 % 0 % 1009,4 hPa 0,0 l/m 0,0 km/h (0 Bft) SW 225 0 min 0,0 UV-I 16,2 C 17,9 C 0,0 km/h (0 Bft)
13.06.2013 22:30 19,4 C 24,6 C 18,7 C 18,8 C 17,6 C 0,0 C 82 % 81 % 0 % 1009,4 hPa 0,0 l/m 0,0 km/h (0 Bft) SW 225 0 min 0,0 UV-I 16,2 C 17,6 C 0,0 km/h (0 Bft)
13.06.2013 22:35 19,2 C 24,6 C 18,6 C 18,6 C 17,5 C 0,0 C 82 % 81 % 0 % 1009,8 hPa 0,0 l/m 0,0 km/h (0 Bft) SW 225 0 min 0,0 UV-I 16,0 C 17,5 C 0,0 km/h (0 Bft)
13.06.2013 22:40 18,9 C 24,6 C 18,5 C 18,4 C 17,4 C 0,0 C 82 % 81 % 0 % 1009,8 hPa 0,0 l/m 0,0 km/h (0 Bft) SW 225 0 min 0,0 UV-I 15,8 C 17,4 C 0,0 km/h (0 Bft)
13.06.2013 22:45 18,7 C 24,6 C 18,4 C 18,2 C 17,3 C 0,0 C 83 % 81 % 0 % 1009,8 hPa 0,0 l/m 0,0 km/h (0 Bft) SW 225 0 min 0,0 UV-I 15,8 C 17,3 C 0,0 km/h (0 Bft)
13.06.2013 22:50 18,4 C 24,6 C 18,3 C 18,0 C 17,2 C 0,0 C 83 % 81 % 0 % 1009,8 hPa 0,0 l/m 0,0 km/h (0 Bft) SW 225 0 min 0,0 UV-I 15,5 C 17,2 C 0,0 km/h (0 Bft)
13.06.2013 22:55 18,2 C 24,6 C 18,1 C 17,8 C 17,0 C 0,0 C 83 % 81 % 0 % 1009,8 hPa 0,0 l/m 0,0 km/h (0 Bft) W-SW 247 0 min 0,0 UV-I 15,3 C 17,0 C 0,0 km/h (0 Bft)
13.06.2013 23:00 18,0 C 24,5 C 18,1 C 17,6 C 16,9 C 0,0 C 83 % 81 % 0 % 1009,8 hPa 0,0 l/m 0,0 km/h (0 Bft) W 270 0 min 0,0 UV-I 15,1 C 16,9 C 0,0 km/h (0 Bft)
13.06.2013 23:05 17,9 C 24,6 C 18,0 C 17,5 C 16,8 C 0,0 C 83 % 81 % 0 % 1009,8 hPa 0,0 l/m 0,0 km/h (0 Bft) W 270 0 min 0,0 UV-I 15,0 C 16,8 C 0,0 km/h (0 Bft)
13.06.2013 23:10 17,6 C 24,6 C 17,8 C 17,3 C 16,8 C 0,0 C 84 % 81 % 0 % 1009,8 hPa 0,0 l/m 0,0 km/h (0 Bft) W 270 0 min 0,0 UV-I 14,9 C 16,8 C 0,0 km/h (0 Bft)
13.06.2013 23:15 17,4 C 24,6 C 17,7 C 17,2 C 16,7 C 0,0 C 84 % 81 % 0 % 1009,2 hPa 0,0 l/m 0,0 km/h (0 Bft) W 270 0 min 0,0 UV-I 14,7 C 16,7 C 0,0 km/h (0 Bft)
13.06.2013 23:20 17,2 C 24,6 C 17,7 C 17,0 C 16,6 C 0,0 C 84 % 81 % 0 % 1009,2 hPa 0,0 l/m 0,0 km/h (0 Bft) W-NW 292 0 min 0,0 UV-I 14,5 C 16,6 C 0,0 km/h (0 Bft)
13.06.2013 23:25 17,1 C 24,6 C 17,6 C 16,9 C 16,5 C 0,0 C 84 % 81 % 0 % 1009,2 hPa 0,0 l/m 0,0 km/h (0 Bft) W-NW 292 0 min 0,0 UV-I 14,4 C 16,5 C 0,0 km/h (0 Bft)
13.06.2013 23:30 16,9 C 24,6 C 17,5 C 16,7 C 16,4 C 0,0 C 84 % 81 % 0 % 1009,2 hPa 0,0 l/m 0,0 km/h (0 Bft) W-NW 292 0 min 0,0 UV-I 14,2 C 16,4 C 0,0 km/h (0 Bft)
13.06.2013 23:35 16,8 C 24,7 C 17,5 C 16,7 C 16,4 C 0,0 C 84 % 81 % 0 % 1009,2 hPa 0,0 l/m 0,0 km/h (0 Bft) O-NO 67 0 min 0,0 UV-I 14,1 C 16,4 C 0,0 km/h (0 Bft)
13.06.2013 23:40 16,7 C 24,5 C 17,3 C 16,6 C 16,5 C 0,0 C 85 % 81 % 0 % 1009,2 hPa 0,0 l/m 0,0 km/h (0 Bft) O-NO 67 0 min 0,0 UV-I 14,2 C 16,5 C 0,0 km/h (0 Bft)
13.06.2013 23:45 16,7 C 24,5 C 17,3 C 16,6 C 16,3 C 0,0 C 85 % 81 % 0 % 1009,2 hPa 0,0 l/m 0,0 km/h (0 Bft) N-NO 22 0 min 0,0 UV-I 14,2 C 16,3 C 0,0 km/h (0 Bft)
13.06.2013 23:50 16,5 C 24,5 C 17,2 C 16,4 C 16,1 C 0,0 C 85 % 81 % 0 % 1009,2 hPa 0,0 l/m 0,0 km/h (0 Bft) N-NO 22 0 min 0,0 UV-I 14,0 C 16,1 C 0,0 km/h (0 Bft)
13.06.2013 23:55 16,5 C 24,5 C 17,3 C 16,4 C 16,1 C 0,0 C 85 % 81 % 0 % 1008,9 hPa 0,0 l/m 0,0 km/h (0 Bft) N-NO 22 0 min 0,0 UV-I 14,0 C 16,1 C 0,0 km/h (0 Bft)
_ Min-Zeit 05:10 08:10 04:45 04:50 04:50 00:20 17:20 15:30 00:00 23:55 - 00:00 - - - 00:00 05:10 04:50 00:00
Minimum _ 10,6 C 22,1 C 12,4 C 11,1 C 11,1 C 0,0 C 48 % 62 % 0 % 1008,9 hPa - 0,0 km/h (0 Bft) - - - 0,0 UV-I 8,9 C 11,1 C 0,0 km/h (0 Bft)
_ Max-Zeit 18:41 23:35 15:35 15:40 15:40 11:45 07:40 04:30 07:05 00:00 00:00 15:10 - - 07:00 06:20 18:25 15:40 13:50
Maximum _ 30,0 C 24,7 C 25,7 C 34,2 C 34,2 C 7,2 C 93 % 84 % 100 % 1017,6 hPa 0,0 l/m 6,8 km/h
S-SW (2 Bft)
- - 19 min 0,3 UV-I 18,7 C 34,2 C 16,4 km/h
SW (3 Bft)
Durchschnitt _ 20,3 C 23,2 C 19,2 C 22,5 C 22,3 C 2,2 C 72 % 77 % 48 % 1014,3 hPa #0,0 l/m 1,0 km/h (0 Bft) SW - #9:30 h 0,1 UV-I 14,7 C 22,3 C 1,6 km/h (1 Bft)
2013 www.wetterstation-wechselburg.de